Time;durP1;ratioP1;P1;durP2;ratioP2;P2;SDS_P1;SDS_P2;PMS_P1;PMS_P2;Temp;Humidity;BMP_temperature;BMP_pressure;BME280_temperature;BME280_humidity;BME280_pressure;Samples;Min_cycle;Max_cycle;Signal;HPM_P1;HPM_P2
2023/07/17 00:00:47;;;;;;;7.38;4.47;;;;;;;13.39;100.00;98626.84;4158557;28;20069;-69
2023/07/17 00:02:47;;;;;;;7.47;4.78;;;;;;;13.40;100.00;98620.09;4158096;28;20068;-69
2023/07/17 00:04:50;;;;;;;8.70;4.63;;;;;;;13.34;100.00;98620.91;4163248;28;20434;-69
2023/07/17 00:06:50;;;;;;;7.43;4.43;;;;;;;13.28;100.00;98616.91;4170831;28;20152;-69
2023/07/17 00:08:51;;;;;;;7.90;4.65;;;;;;;13.23;100.00;98622.84;4158754;28;20073;-69
2023/07/17 00:10:51;;;;;;;6.32;4.40;;;;;;;13.16;100.00;98626.38;4158708;28;20140;-69
2023/07/17 00:12:51;;;;;;;8.13;5.10;;;;;;;13.19;100.00;98631.13;4157528;28;20124;-69
2023/07/17 00:14:51;;;;;;;8.65;4.75;;;;;;;13.13;100.00;98619.59;4158569;28;20434;-69
2023/07/17 00:16:52;;;;;;;5.95;4.57;;;;;;;13.17;100.00;98625.19;4158490;28;20427;-69
2023/07/17 00:18:52;;;;;;;9.32;4.78;;;;;;;13.17;100.00;98633.53;4159305;28;20095;-69
2023/07/17 00:20:53;;;;;;;6.38;4.55;;;;;;;13.16;100.00;98621.63;4172734;28;20102;-69
2023/07/17 00:22:53;;;;;;;6.65;4.20;;;;;;;13.17;100.00;98625.19;4157466;28;20041;-69
2023/07/17 00:24:54;;;;;;;8.27;4.70;;;;;;;13.11;100.00;98626.75;4158478;28;20076;-69
2023/07/17 00:26:54;;;;;;;6.38;4.22;;;;;;;13.09;100.00;98637.47;4159790;28;20071;-69
2023/07/17 00:29:15;;;;;;;8.48;4.88;;;;;;;13.04;100.00;98633.06;4159461;28;20079;-69
2023/07/17 00:31:15;;;;;;;6.35;4.80;;;;;;;12.97;100.00;98629.44;4170898;28;20506;-69
2023/07/17 00:33:16;;;;;;;8.05;4.75;;;;;;;12.91;100.00;98638.19;4159291;28;20120;-69
2023/07/17 00:35:16;;;;;;;5.88;4.63;;;;;;;12.84;100.00;98642.91;4157852;28;20128;-69
2023/07/17 00:37:16;;;;;;;7.60;4.28;;;;;;;12.74;100.00;98641.63;4158193;28;20081;-69
2023/07/17 00:39:20;;;;;;;6.53;4.80;;;;;;;12.73;100.00;98634.50;4158872;28;20045;-69
2023/07/17 00:41:20;;;;;;;9.43;4.70;;;;;;;12.70;100.00;98637.25;4173004;28;20206;-69
2023/07/17 00:43:20;;;;;;;8.93;4.70;;;;;;;12.68;100.00;98637.66;4158004;28;20565;-69
2023/07/17 00:45:21;;;;;;;8.52;5.07;;;;;;;12.67;100.00;98632.50;4158617;28;20111;-69
2023/07/17 00:47:21;;;;;;;7.28;5.00;;;;;;;12.66;100.00;98634.47;4158078;28;20111;-69
2023/07/17 00:49:24;;;;;;;10.50;4.78;;;;;;;12.65;100.00;98636.44;4157995;28;20434;-69
2023/07/17 00:51:25;;;;;;;7.75;4.47;;;;;;;12.63;100.00;98644.34;4158276;28;20042;-69
2023/07/17 00:53:25;;;;;;;9.85;5.18;;;;;;;12.67;100.00;98647.16;4157734;28;20045;-69
2023/07/17 00:55:26;;;;;;;8.85;4.72;;;;;;;12.69;100.00;98636.47;4157606;28;20465;-69
2023/07/17 00:57:26;;;;;;;7.80;5.15;;;;;;;12.65;100.00;98639.22;4157087;28;20412;-69
2023/07/17 00:59:27;;;;;;;10.10;4.63;;;;;;;12.62;100.00;98641.97;4160531;28;20057;-69
2023/07/17 01:01:28;;;;;;;6.15;4.05;;;;;;;12.64;100.00;98642.38;4163312;28;20099;-69
2023/07/17 01:03:29;;;;;;;7.78;4.55;;;;;;;12.65;100.00;98653.09;4156992;28;20473;-69
2023/07/17 01:05:29;;;;;;;7.43;4.90;;;;;;;12.71;100.00;98647.97;4157707;28;20037;-69
2023/07/17 01:07:30;;;;;;;6.93;4.10;;;;;;;12.72;100.00;98644.00;4170256;28;20084;-69
2023/07/17 01:09:30;;;;;;;9.43;4.88;;;;;;;12.69;100.00;98638.44;4157652;28;20091;-69
2023/07/17 01:11:31;;;;;;;6.43;4.63;;;;;;;12.69;100.00;98647.56;4157443;28;20449;-69
2023/07/17 01:13:46;;;;;;;7.47;4.80;;;;;;;12.67;100.00;98646.38;4155813;28;20128;-69
2023/07/17 01:15:46;;;;;;;11.20;4.80;;;;;;;12.58;100.00;98647.53;4157956;28;20042;-69
2023/07/17 01:17:46;;;;;;;10.52;4.28;;;;;;;12.50;100.00;98648.66;4170845;28;20508;-69
2023/07/17 01:19:46;;;;;;;9.65;4.75;;;;;;;12.49;100.00;98646.25;4160067;28;20045;-69
2023/07/17 01:21:57;;;;;;;8.30;5.07;;;;;;;12.39;100.00;98645.00;4157318;28;20480;-69
2023/07/17 01:23:57;;;;;;;9.50;5.13;;;;;;;12.35;100.00;98650.53;4156752;28;20136;-69
2023/07/17 01:25:58;;;;;;;9.98;4.80;;;;;;;12.25;100.00;98645.72;4158108;28;20168;-69
2023/07/17 01:27:59;;;;;;;8.57;4.90;;;;;;;12.21;100.00;98649.63;4157425;28;20045;-69
2023/07/17 01:29:59;;;;;;;7.40;5.00;;;;;;;12.14;100.00;98641.25;4161546;28;20050;-69
2023/07/17 01:31:59;;;;;;;9.95;6.05;;;;;;;12.09;100.00;98648.75;4159935;28;20053;-69
2023/07/17 01:33:59;;;;;;;5.80;4.53;;;;;;;12.09;100.00;98637.66;4156485;28;20095;-69
2023/07/17 01:36:01;;;;;;;6.43;4.55;;;;;;;12.10;100.00;98646.78;4157159;28;20041;-69
2023/07/17 01:38:08;;;;;;;6.78;4.60;;;;;;;12.05;100.00;98652.66;4163653;28;20382;-68
2023/07/17 01:40:10;;;;;;;5.30;4.22;;;;;;;12.04;100.00;98651.06;4161592;28;20036;-68
2023/07/17 01:42:10;;;;;;;7.10;4.50;;;;;;;11.98;100.00;98642.31;4159801;28;20033;-68
2023/07/17 01:44:11;;;;;;;8.10;4.43;;;;;;;11.98;100.00;98639.53;4164032;28;20075;-68
2023/07/17 01:46:11;;;;;;;5.85;4.35;;;;;;;12.03;100.00;98643.94;4164183;28;20477;-68
2023/07/17 01:48:14;;;;;;;6.40;4.53;;;;;;;11.95;100.00;98637.53;4162594;28;20056;-69
2023/07/17 01:50:14;;;;;;;6.57;4.65;;;;;;;11.96;100.00;98644.66;4155823;28;20022;-68
2023/07/17 01:52:14;;;;;;;6.47;4.38;;;;;;;11.92;100.00;98637.53;4162779;28;20053;-68
2023/07/17 01:54:15;;;;;;;8.63;5.15;;;;;;;11.89;100.00;98649.34;4162377;28;20033;-68
2023/07/17 01:56:15;;;;;;;7.50;4.45;;;;;;;11.94;100.00;98643.47;4164604;28;20035;-68
2023/07/17 01:58:15;;;;;;;6.63;4.90;;;;;;;11.94;100.00;98641.50;4164942;28;20385;-68
2023/07/17 02:00:16;;;;;;;8.85;5.20;;;;;;;11.92;100.00;98643.84;4161125;28;20048;-68
2023/07/17 02:02:16;;;;;;;9.05;5.00;;;;;;;11.89;100.00;98647.38;4161737;28;20025;-68
2023/07/17 02:04:17;;;;;;;9.35;5.40;;;;;;;11.94;100.00;98638.72;4159666;28;20301;-68
2023/07/17 02:06:17;;;;;;;8.63;4.88;;;;;;;11.92;100.00;98632.75;4162504;28;20126;-68
2023/07/17 02:08:17;;;;;;;7.60;4.82;;;;;;;11.91;100.00;98639.47;4161323;28;20021;-68
2023/07/17 02:10:18;;;;;;;9.57;5.32;;;;;;;11.89;100.00;98643.81;4162114;28;20465;-68
2023/07/17 02:12:18;;;;;;;11.38;5.15;;;;;;;11.88;100.00;98640.25;4161075;28;20028;-68
2023/07/17 02:14:20;;;;;;;7.28;4.93;;;;;;;11.89;100.00;98647.38;4161432;28;20033;-68
2023/07/17 02:16:20;;;;;;;7.47;5.00;;;;;;;11.95;100.00;98650.59;4163608;28;20438;-68
2023/07/17 02:18:20;;;;;;;7.40;5.40;;;;;;;11.93;100.00;98650.19;4159981;28;20049;-68
2023/07/17 02:20:21;;;;;;;6.93;4.90;;;;;;;11.89;100.00;98647.38;4158670;28;20179;-68
2023/07/17 02:22:21;;;;;;;9.85;5.18;;;;;;;11.87;100.00;98641.44;4161795;28;20420;-68
2023/07/17 02:24:21;;;;;;;8.80;5.53;;;;;;;11.86;100.00;98647.34;4159335;28;20294;-68
2023/07/17 02:26:22;;;;;;;7.85;4.93;;;;;;;11.81;100.00;98648.50;4162719;28;20384;-68
2023/07/17 02:28:22;;;;;;;10.30;5.53;;;;;;;11.80;100.00;98653.25;4160863;28;20478;-68
2023/07/17 02:30:23;;;;;;;7.25;5.10;;;;;;;11.73;100.00;98644.81;4160048;28;20479;-68
2023/07/17 02:32:23;;;;;;;11.13;5.32;;;;;;;11.68;100.00;98656.28;4162113;28;20513;-68
2023/07/17 02:34:24;;;;;;;8.65;5.10;;;;;;;11.63;100.00;98651.06;4156065;28;20065;-68
2023/07/17 02:36:24;;;;;;;8.55;5.18;;;;;;;11.58;100.00;98653.38;4164349;28;20107;-68
2023/07/17 02:38:24;;;;;;;9.05;5.10;;;;;;;11.58;100.00;98656.16;4179578;28;20049;-68
2023/07/17 02:40:25;;;;;;;8.77;4.93;;;;;;;11.58;100.00;98653.38;4195081;28;20357;-68
2023/07/17 02:42:25;;;;;;;10.02;5.70;;;;;;;11.46;100.00;98646.94;4193284;28;20127;-68
2023/07/17 02:44:26;;;;;;;8.38;4.90;;;;;;;11.46;100.00;98654.44;4194978;28;20055;-68
2023/07/17 02:46:26;;;;;;;6.68;4.80;;;;;;;11.47;100.00;98662.38;4193581;28;20036;-68
2023/07/17 02:48:26;;;;;;;7.57;4.65;;;;;;;11.44;100.00;98665.13;4188516;28;20083;-68
2023/07/17 02:50:27;;;;;;;7.43;5.10;;;;;;;11.40;100.00;98662.31;4184512;28;20342;-68
2023/07/17 02:52:28;;;;;;;13.60;5.75;;;;;;;11.36;100.00;98667.00;4180496;28;20465;-68
2023/07/17 02:54:29;;;;;;;12.97;6.93;;;;;;;11.37;100.00;98665.03;4182511;28;20105;-68
2023/07/17 02:56:29;;;;;;;7.78;5.10;;;;;;;11.34;100.00;98665.81;4182653;28;20041;-68
2023/07/17 02:58:29;;;;;;;9.80;5.07;;;;;;;11.31;100.00;98663.78;4178755;28;20045;-68
2023/07/17 03:00:30;;;;;;;8.98;4.97;;;;;;;11.34;100.00;98674.13;4183644;28;20041;-68
2023/07/17 03:02:30;;;;;;;8.40;4.72;;;;;;;11.32;100.00;98670.91;4182544;28;20095;-68
2023/07/17 03:04:30;;;;;;;11.02;5.78;;;;;;;11.33;100.00;98667.75;4177607;28;20408;-68
2023/07/17 03:06:30;;;;;;;9.40;5.60;;;;;;;11.37;100.00;98665.03;4181650;28;20045;-68
2023/07/17 03:08:31;;;;;;;9.00;4.80;;;;;;;11.34;100.00;98668.59;4183067;28;20457;-68
2023/07/17 03:10:31;;;;;;;7.93;5.05;;;;;;;11.33;100.00;98661.41;4183234;28;20049;-68
2023/07/17 03:12:31;;;;;;;9.63;5.07;;;;;;;11.34;100.00;98668.59;4176837;28;20081;-68
2023/07/17 03:14:32;;;;;;;13.13;5.32;;;;;;;11.28;100.00;98676.41;4183827;28;20083;-68
2023/07/17 03:16:32;;;;;;;7.22;4.60;;;;;;;11.30;100.00;98676.03;4182518;28;20104;-68
2023/07/17 03:18:32;;;;;;;9.82;6.00;;;;;;;11.26;100.00;98673.25;4177743;28;20436;-68
2023/07/17 03:20:34;;;;;;;8.85;5.30;;;;;;;11.27;100.00;98677.59;4180048;28;20107;-68
2023/07/17 03:22:35;;;;;;;7.60;5.07;;;;;;;11.28;100.00;98679.19;4182282;28;20135;-68
2023/07/17 03:24:35;;;;;;;13.15;6.20;;;;;;;11.25;100.00;98679.94;4180595;28;20044;-68
2023/07/17 03:26:35;;;;;;;10.55;5.22;;;;;;;11.24;100.00;98676.34;4180596;28;20402;-68
2023/07/17 03:28:37;;;;;;;8.95;4.60;;;;;;;11.22;100.00;98673.19;4182362;28;20040;-68
2023/07/17 03:30:39;;;;;;;12.02;5.50;;;;;;;11.28;100.00;98681.16;4184336;28;20102;-68
2023/07/17 03:32:39;;;;;;;7.65;4.70;;;;;;;11.32;100.00;98679.22;4179826;28;20037;-68
2023/07/17 03:34:39;;;;;;;14.10;5.07;;;;;;;11.33;100.00;98675.28;4181239;28;20093;-68
2023/07/17 03:36:40;;;;;;;8.27;5.50;;;;;;;11.34;100.00;98679.66;4180512;28;20467;-68
2023/07/17 03:38:41;;;;;;;7.32;5.00;;;;;;;11.34;100.00;98666.59;4182043;28;20041;-68
2023/07/17 03:40:41;;;;;;;8.35;4.93;;;;;;;11.37;100.00;98667.81;4180550;28;20064;-68
2023/07/17 03:42:42;;;;;;;7.03;5.07;;;;;;;11.37;100.00;98674.16;4183692;28;20048;-68
2023/07/17 03:44:42;;;;;;;8.52;5.00;;;;;;;11.34;100.00;98677.69;4178986;28;20067;-68
2023/07/17 03:46:42;;;;;;;11.00;5.60;;;;;;;11.31;100.00;98677.63;4182666;28;20648;-68
2023/07/17 03:48:43;;;;;;;12.63;5.32;;;;;;;11.27;100.00;98672.06;4179518;28;20052;-68
2023/07/17 03:50:43;;;;;;;7.32;5.57;;;;;;;11.25;100.00;98680.75;4181401;28;20124;-68
2023/07/17 03:52:43;;;;;;;8.88;5.35;;;;;;;11.23;100.00;98672.00;4182050;28;20171;-68
2023/07/17 03:54:44;;;;;;;8.63;5.45;;;;;;;11.20;100.00;98678.31;4181202;28;20392;-68
2023/07/17 03:56:44;;;;;;;11.55;5.47;;;;;;;11.21;100.00;98679.91;4178640;28;20163;-68
2023/07/17 03:58:46;;;;;;;7.93;5.30;;;;;;;11.19;100.00;98682.25;4180779;28;20051;-68
2023/07/17 04:00:46;;;;;;;8.80;5.65;;;;;;;11.17;100.00;98678.25;4178720;28;20559;-68
2023/07/17 04:02:46;;;;;;;11.05;5.28;;;;;;;11.20;100.00;98688.59;4180184;28;20037;-68
2023/07/17 04:04:47;;;;;;;7.68;5.43;;;;;;;11.21;100.00;98684.63;4178996;28;20037;-68
2023/07/17 04:06:47;;;;;;;7.70;5.70;;;;;;;11.18;100.00;98669.59;4179834;28;20065;-68
2023/07/17 04:08:48;;;;;;;9.50;5.55;;;;;;;11.25;100.00;98675.22;4179661;28;20049;-68
2023/07/17 04:10:48;;;;;;;8.40;5.00;;;;;;;11.33;100.00;98689.13;4178611;28;20558;-68
2023/07/17 04:12:49;;;;;;;8.60;5.72;;;;;;;11.38;100.00;98675.75;4180540;28;20859;-68
2023/07/17 04:14:49;;;;;;;9.27;5.90;;;;;;;11.45;100.00;98681.38;4177715;28;20040;-68
2023/07/17 04:16:50;;;;;;;9.15;5.40;;;;;;;11.56;100.00;98687.00;4177869;28;20111;-68
2023/07/17 04:18:50;;;;;;;10.93;5.93;;;;;;;11.62;100.00;98679.16;4179326;28;20068;-68
2023/07/17 04:20:51;;;;;;;10.15;5.82;;;;;;;11.69;100.00;98688.34;4178081;28;20037;-68
2023/07/17 04:22:51;;;;;;;10.88;5.28;;;;;;;11.77;100.00;98690.03;4180798;28;20612;-68
2023/07/17 04:24:51;;;;;;;11.18;5.55;;;;;;;11.88;100.00;98690.16;4181136;28;20190;-68
2023/07/17 04:26:52;;;;;;;9.85;6.03;;;;;;;11.98;100.00;98697.75;4180558;28;20048;-68
2023/07/17 04:28:53;;;;;;;10.77;6.30;;;;;;;12.07;100.00;98694.66;4183338;28;20075;-68
2023/07/17 04:30:53;;;;;;;11.10;5.25;;;;;;;12.13;100.00;98695.91;4181863;28;20481;-68
2023/07/17 04:32:54;;;;;;;13.75;5.85;;;;;;;12.17;100.00;98695.97;4181394;28;20373;-68
2023/07/17 04:34:56;;;;;;;11.95;5.70;;;;;;;12.19;100.00;98691.63;4181532;28;20210;-68
2023/07/17 04:36:57;;;;;;;10.82;5.85;;;;;;;12.23;100.00;98697.97;4178987;28;20072;-68
2023/07/17 04:38:57;;;;;;;11.73;5.90;;;;;;;12.25;100.00;98709.50;4179875;28;20049;-68
2023/07/17 04:40:57;;;;;;;9.77;5.75;;;;;;;12.34;100.00;98704.44;4181066;28;20126;-68
2023/07/17 04:43:02;;;;;;;9.70;5.63;;;;;;;12.42;100.00;98708.06;4179947;28;20052;-68
2023/07/17 04:45:04;;;;;;;9.65;5.15;;;;;;;12.54;100.00;98710.53;4180118;28;20048;-68
2023/07/17 04:47:05;;;;;;;;;;;;;;;12.68;100.00;98712.59;4181466;28;20097;-68
2023/07/17 04:49:05;;;;;;;9.23;5.28;;;;;;;12.81;100.00;98708.31;4178618;28;20334;-68
2023/07/17 04:51:06;;;;;;;10.02;5.90;;;;;;;12.98;100.00;98712.38;4176890;28;20053;-68
2023/07/17 04:53:06;;;;;;;8.55;5.50;;;;;;;13.05;100.00;98698.53;4178504;28;20331;-68
2023/07/17 04:55:07;;;;;;;11.63;5.82;;;;;;;13.12;100.00;98703.34;4177890;28;20076;-68
2023/07/17 04:57:07;;;;;;;13.43;5.78;;;;;;;13.22;100.00;98702.59;4179127;28;20059;-68
2023/07/17 04:59:07;;;;;;;7.20;5.00;;;;;;;13.29;100.00;98713.75;4181449;28;20037;-68
2023/07/17 05:01:08;;;;;;;7.53;5.18;;;;;;;13.33;100.00;98711.00;4181989;28;20440;-68
2023/07/17 05:03:08;;;;;;;11.40;5.85;;;;;;;13.39;100.00;98703.88;4177162;28;20164;-68
2023/07/17 05:05:09;;;;;;;10.48;5.32;;;;;;;13.43;100.00;98699.94;4177055;28;20050;-68
2023/07/17 05:07:09;;;;;;;11.15;5.45;;;;;;;13.46;100.00;98713.03;4174070;28;20613;-68
2023/07/17 05:09:10;;;;;;;8.52;5.43;;;;;;;13.50;100.00;98707.50;4180673;28;20041;-68
2023/07/17 05:11:11;;;;;;;13.30;5.20;;;;;;;13.53;100.00;98719.81;4179300;28;20047;-68
2023/07/17 05:13:12;;;;;;;10.48;5.20;;;;;;;13.59;100.00;98709.91;4174627;28;20075;-68
2023/07/17 05:15:12;;;;;;;9.63;5.15;;;;;;;13.70;100.00;98717.09;4178914;28;20032;-68
2023/07/17 05:17:13;;;;;;;7.53;5.07;;;;;;;13.86;100.00;98718.72;4179271;28;20049;-68
2023/07/17 05:19:13;;;;;;;13.75;6.05;;;;;;;13.93;100.00;98716.75;4182753;28;20071;-68
2023/07/17 05:21:13;;;;;;;7.15;5.05;;;;;;;13.96;100.00;98718.72;4181951;28;20446;-68
2023/07/17 05:23:14;;;;;;;10.23;6.10;;;;;;;14.10;100.00;98714.38;4180926;28;20116;-68
2023/07/17 05:25:14;;;;;;;8.73;5.55;;;;;;;14.20;100.00;98706.03;4179253;28;20048;-68
2023/07/17 05:27:14;;;;;;;9.50;5.75;;;;;;;14.37;100.00;98704.44;4182715;28;20044;-68
2023/07/17 05:29:15;;;;;;;8.80;5.65;;;;;;;14.55;100.00;98712.81;4183154;28;20036;-68
2023/07/17 05:31:15;;;;;;;11.43;5.70;;;;;;;14.64;100.00;98707.63;4180768;28;20073;-68
2023/07/17 05:33:15;;;;;;;6.50;5.50;;;;;;;14.70;100.00;98713.63;4177029;28;20075;-68
2023/07/17 05:35:16;;;;;;;11.70;5.47;;;;;;;14.70;100.00;98708.84;4182502;28;20611;-68
2023/07/17 05:37:18;;;;;;;7.10;5.20;;;;;;;14.85;100.00;98717.97;4180247;28;20059;-68
2023/07/17 05:39:18;;;;;;;8.27;5.60;;;;;;;15.01;100.00;98718.34;4179938;28;20131;-68
2023/07/17 05:41:19;;;;;;;8.48;5.70;;;;;;;15.07;100.00;98718.72;4180825;28;20720;-68
2023/07/17 05:43:19;;;;;;;8.13;5.05;;;;;;;15.10;100.00;98712.34;4179649;28;20494;-68
2023/07/17 05:45:19;;;;;;;10.27;6.15;;;;;;;15.11;100.00;98717.50;4177492;28;20471;-69
2023/07/17 05:47:19;;;;;;;9.73;5.88;;;;;;;15.15;100.00;98725.88;4180152;28;20075;-68
2023/07/17 05:49:20;;;;;;;9.43;5.78;;;;;;;15.18;100.00;98719.47;4180206;28;20061;-68
2023/07/17 05:51:20;;;;;;;10.52;6.10;;;;;;;15.36;100.00;98722.19;4181530;28;20185;-68
2023/07/17 05:53:20;;;;;;;9.50;5.82;;;;;;;15.53;100.00;98718.53;4175360;28;20079;-68
2023/07/17 05:55:21;;;;;;;8.35;5.88;;;;;;;15.55;100.00;98723.72;4181875;28;20385;-68
2023/07/17 05:57:21;;;;;;;8.15;5.07;;;;;;;15.62;100.00;98720.91;4180482;28;20029;-68
2023/07/17 05:59:21;;;;;;;8.50;5.65;;;;;;;15.77;100.00;98725.22;4180780;28;20036;-68
2023/07/17 06:01:22;;;;;;;9.63;5.93;;;;;;;15.98;100.00;98722.31;4177643;28;20068;-68
2023/07/17 06:03:22;;;;;;;8.38;5.32;;;;;;;16.13;100.00;98730.59;4177122;28;20044;-68
2023/07/17 06:05:22;;;;;;;11.15;5.90;;;;;;;16.16;100.00;98730.56;4178479;28;20815;-69
2023/07/17 06:07:23;;;;;;;10.82;5.55;;;;;;;16.35;100.00;98734.81;4180514;28;20448;-69
2023/07/17 06:09:23;;;;;;;10.32;6.03;;;;;;;16.54;100.00;98730.69;4180623;28;20101;-69
2023/07/17 06:11:24;;;;;;;10.32;5.82;;;;;;;16.75;100.00;98744.50;4180919;28;20052;-69
2023/07/17 06:13:24;;;;;;;13.25;6.10;;;;;;;17.01;98.43;98731.88;4177774;28;20041;-69
2023/07/17 06:15:25;;;;;;;8.70;5.40;;;;;;;17.31;96.68;98741.53;4181200;28;20029;-69
2023/07/17 06:17:26;;;;;;;10.43;5.55;;;;;;;17.50;92.69;98729.72;4178820;28;20059;-69
2023/07/17 06:19:26;;;;;;;8.80;5.30;;;;;;;17.67;93.71;98728.69;4180821;28;20183;-69
2023/07/17 06:21:27;;;;;;;10.65;5.15;;;;;;;17.94;91.40;98736.38;4179917;28;20067;-69
2023/07/17 06:23:27;;;;;;;9.38;5.32;;;;;;;18.11;91.24;98734.53;4179621;28;20381;-69
2023/07/17 06:25:27;;;;;;;10.82;4.82;;;;;;;18.28;86.53;98739.06;4182763;28;20047;-69
2023/07/17 06:27:27;;;;;;;11.48;5.50;;;;;;;18.42;86.33;98733.25;4183150;28;20528;-69
2023/07/17 06:29:28;;;;;;;8.85;4.57;;;;;;;18.59;84.67;98727.78;4181924;28;20640;-69
2023/07/17 06:31:28;;;;;;;12.00;5.30;;;;;;;18.74;84.40;98743.16;4185139;28;20120;-69
2023/07/17 06:33:28;;;;;;;12.80;5.40;;;;;;;18.86;81.46;98734.13;4179874;28;20460;-69
2023/07/17 06:35:29;;;;;;;6.53;4.78;;;;;;;18.94;81.17;98729.19;4188590;28;20075;-69
2023/07/17 06:37:29;;;;;;;7.88;4.65;;;;;;;19.16;78.69;98743.63;4187304;28;20068;-69
2023/07/17 06:39:29;;;;;;;6.72;4.32;;;;;;;19.40;77.26;98739.53;4180463;28;20041;-69
2023/07/17 06:41:30;;;;;;;9.82;5.00;;;;;;;19.51;76.28;98748.53;4182673;28;20496;-69
2023/07/17 06:43:30;;;;;;;12.43;5.45;;;;;;;19.57;76.08;98732.00;4180849;28;20136;-69
2023/07/17 06:45:30;;;;;;;10.10;4.70;;;;;;;19.56;76.12;98742.44;4190705;28;20078;-69
2023/07/17 06:47:31;;;;;;;6.05;4.40;;;;;;;19.66;75.64;98740.66;4180539;28;20134;-69
2023/07/17 06:49:31;;;;;;;7.97;5.07;;;;;;;19.73;74.37;98750.94;4182880;28;20044;-69
2023/07/17 06:51:31;;;;;;;9.80;4.70;;;;;;;19.77;74.66;98741.19;4181378;28;20039;-69
2023/07/17 06:53:32;;;;;;;9.57;4.78;;;;;;;19.77;75.18;98749.63;4179327;28;20312;-69
2023/07/17 06:55:32;;;;;;;10.43;4.78;;;;;;;19.80;75.23;98751.56;4182912;28;20038;-69
2023/07/17 06:57:32;;;;;;;6.60;4.40;;;;;;;19.87;75.35;98751.44;4184433;28;20524;-69
2023/07/17 06:59:33;;;;;;;6.50;4.15;;;;;;;19.88;76.13;98747.41;4180037;28;20036;-69
2023/07/17 07:01:33;;;;;;;8.05;5.20;;;;;;;20.03;73.24;98745.06;4185022;28;20036;-69
2023/07/17 07:03:34;;;;;;;8.02;4.85;;;;;;;20.16;74.31;98734.72;4177076;28;20538;-69
2023/07/17 07:05:34;;;;;;;8.32;4.85;;;;;;;20.29;73.13;98742.47;4181878;28;20049;-69
2023/07/17 07:07:34;;;;;;;7.57;4.70;;;;;;;20.34;72.77;98744.75;4184198;28;20140;-69
2023/07/17 07:09:35;;;;;;;7.50;4.43;;;;;;;20.40;71.75;98746.59;4182715;28;20052;-69
2023/07/17 07:11:35;;;;;;;10.35;5.10;;;;;;;20.67;70.88;98748.41;4185661;28;20040;-69
2023/07/17 07:13:36;;;;;;;6.80;4.13;;;;;;;20.69;72.12;98732.69;4179271;28;20417;-69
2023/07/17 07:15:36;;;;;;;6.80;4.07;;;;;;;20.72;71.68;98743.03;4180390;28;20232;-69
2023/07/17 07:17:36;;;;;;;8.90;4.05;;;;;;;20.73;70.52;98738.22;4177729;28;20546;-69
2023/07/17 07:19:37;;;;;;;6.53;3.97;;;;;;;20.84;71.22;98746.38;4185658;28;20048;-69
2023/07/17 07:21:37;;;;;;;5.85;3.92;;;;;;;20.95;69.21;98736.44;4179401;28;20067;-69
2023/07/17 07:23:37;;;;;;;6.60;3.95;;;;;;;21.03;68.45;98753.91;4182136;28;20490;-69
2023/07/17 07:25:37;;;;;;;9.50;4.05;;;;;;;21.02;68.65;98739.06;4177829;28;20401;-69
2023/07/17 07:27:38;;;;;;;10.77;4.63;;;;;;;21.09;69.07;98754.16;4181328;28;20044;-69
2023/07/17 07:29:38;;;;;;;6.55;3.83;;;;;;;21.10;67.79;98744.47;4182064;28;20049;-69
2023/07/17 07:31:38;;;;;;;7.60;3.95;;;;;;;21.05;68.16;98743.00;4183342;28;20066;-69
2023/07/17 07:33:39;;;;;;;8.68;4.45;;;;;;;21.07;68.48;98754.59;4180265;28;20392;-69
2023/07/17 07:35:46;;;;;;;8.00;4.07;;;;;;;21.10;68.28;98750.91;4182061;28;20048;-69
2023/07/17 07:37:47;;;;;;;6.63;4.22;;;;;;;21.12;67.29;98758.91;4181670;28;20393;-69
2023/07/17 07:39:47;;;;;;;6.95;3.95;;;;;;;21.21;67.22;98747.81;4176266;28;20046;-69
2023/07/17 07:41:47;;;;;;;5.70;3.60;;;;;;;21.26;65.63;98750.84;4183118;28;20090;-69
2023/07/17 07:43:47;;;;;;;6.13;3.60;;;;;;;21.30;65.97;98748.78;4180499;28;20040;-69
2023/07/17 07:45:48;;;;;;;7.35;3.85;;;;;;;21.39;64.89;98762.22;4180156;28;20041;-69
2023/07/17 07:47:48;;;;;;;9.43;3.75;;;;;;;21.45;65.53;98742.75;4186329;28;20068;-69
2023/07/17 07:49:48;;;;;;;7.35;4.28;;;;;;;21.47;64.93;98745.91;4182484;28;20029;-69
2023/07/17 07:51:49;;;;;;;7.15;3.92;;;;;;;21.40;63.41;98755.34;4182565;28;20135;-69
2023/07/17 07:53:49;;;;;;;6.13;3.63;;;;;;;21.42;65.65;98752.06;4179329;28;20033;-69
2023/07/17 07:55:50;;;;;;;9.32;4.35;;;;;;;21.43;64.63;98748.03;4183151;28;20069;-70
2023/07/17 07:57:50;;;;;;;10.75;4.13;;;;;;;21.53;64.84;98744.94;4180883;28;20064;-70
2023/07/17 07:59:51;;;;;;;7.32;3.92;;;;;;;21.66;65.68;98749.78;4181407;28;20068;-70
2023/07/17 08:01:51;;;;;;;9.40;4.43;;;;;;;21.75;64.17;98744.28;4181692;28;20395;-70
2023/07/17 08:03:51;;;;;;;7.32;4.10;;;;;;;21.80;63.05;98744.53;4180633;28;20130;-69
2023/07/17 08:05:52;;;;;;;6.88;3.88;;;;;;;21.75;62.83;98733.81;4182674;28;20048;-70
2023/07/17 08:07:52;;;;;;;9.02;3.53;;;;;;;21.84;62.05;98742.41;4180386;28;20044;-70
2023/07/17 08:09:52;;;;;;;7.03;3.58;;;;;;;21.99;62.96;98739.16;4182506;28;20041;-70
2023/07/17 08:11:53;;;;;;;6.85;3.22;;;;;;;22.10;59.91;98739.66;4181139;28;20114;-69
2023/07/17 08:13:53;;;;;;;8.05;3.72;;;;;;;22.23;62.03;98748.13;4181025;28;20032;-70
2023/07/17 08:15:54;;;;;;;5.55;3.13;;;;;;;22.31;60.15;98738.19;4183471;28;20111;-70
2023/07/17 08:17:54;;;;;;;7.95;3.85;;;;;;;22.39;60.78;98731.09;4184174;28;20048;-70
2023/07/17 08:19:54;;;;;;;5.70;3.22;;;;;;;22.55;60.66;98741.47;4182266;28;20052;-70
2023/07/17 08:21:54;;;;;;;6.03;3.08;;;;;;;22.66;59.16;98739.84;4182850;28;20048;-70
2023/07/17 08:23:55;;;;;;;12.98;3.05;;;;;;;22.82;56.81;98747.38;4182291;28;20072;-70
2023/07/17 08:25:55;;;;;;;6.30;2.97;;;;;;;22.91;57.68;98741.06;4179097;28;20444;-70
2023/07/17 08:27:56;;;;;;;6.65;3.42;;;;;;;23.03;57.80;98745.13;4179083;28;20053;-70
2023/07/17 08:29:56;;;;;;;6.05;2.88;;;;;;;23.07;57.77;98742.94;4182055;28;20040;-70
2023/07/17 08:31:57;;;;;;;6.82;3.00;;;;;;;23.13;59.01;98749.59;4180820;28;20352;-70
2023/07/17 08:33:59;;;;;;;6.57;3.20;;;;;;;23.22;59.17;98752.50;4178152;28;20033;-70
2023/07/17 08:35:59;;;;;;;4.93;2.70;;;;;;;23.29;57.42;98749.44;4183220;28;20464;-70
2023/07/17 08:37:59;;;;;;;6.22;2.90;;;;;;;23.34;57.32;98748.84;4183745;28;20107;-70
2023/07/17 08:40:00;;;;;;;6.45;3.35;;;;;;;23.45;57.26;98745.63;4179091;28;20082;-70
2023/07/17 08:42:01;;;;;;;5.55;3.13;;;;;;;23.46;56.88;98739.53;4182956;28;20036;-70
2023/07/17 08:44:02;;;;;;;6.57;3.13;;;;;;;23.59;56.72;98741.50;4179791;28;20052;-71
2023/07/17 08:46:02;;;;;;;4.88;2.88;;;;;;;23.57;55.57;98747.59;4176629;28;20449;-70
2023/07/17 08:48:04;;;;;;;5.90;2.60;;;;;;;23.53;55.68;98736.44;4182606;28;20308;-70
2023/07/17 08:50:06;;;;;;;9.17;3.50;;;;;;;23.49;56.70;98741.41;4182786;28;20107;-70
2023/07/17 08:52:09;;;;;;;5.93;2.75;;;;;;;23.59;55.71;98730.22;4179586;28;20259;-70
2023/07/17 08:54:12;;;;;;;8.43;3.22;;;;;;;23.71;56.14;98732.97;4179737;28;20497;-70
2023/07/17 08:56:12;;;;;;;4.85;2.85;;;;;;;23.85;55.43;98734.50;4176498;28;20098;-70
2023/07/17 08:58:13;;;;;;;6.40;3.30;;;;;;;23.77;54.36;98730.38;4181487;28;20032;-70
2023/07/17 09:00:15;;;;;;;4.68;2.75;;;;;;;23.51;56.67;98727.66;4180972;28;20497;-70
2023/07/17 09:02:16;;;;;;;7.47;3.55;;;;;;;23.43;56.75;98734.03;4180922;28;20200;-70
2023/07/17 09:04:17;;;;;;;5.63;3.03;;;;;;;23.32;55.53;98734.38;4180091;28;20358;-70
2023/07/17 09:06:26;;;;;;;5.15;2.80;;;;;;;23.34;57.55;98742.44;4181004;28;20577;-70
2023/07/17 09:08:27;;;;;;;9.02;3.10;;;;;;;23.45;58.70;98740.78;4184168;28;20053;-70
2023/07/17 09:10:27;;;;;;;5.72;3.15;;;;;;;23.64;56.50;98733.25;4181395;28;20043;-70
2023/07/17 09:12:28;;;;;;;6.13;3.08;;;;;;;23.85;56.33;98742.97;4180355;28;20232;-70
2023/07/17 09:14:28;;;;;;;5.97;2.80;;;;;;;24.08;54.48;98736.03;4180612;28;20068;-70
2023/07/17 09:16:28;;;;;;;4.75;2.90;;;;;;;24.01;54.65;98731.44;4181585;28;20068;-70
2023/07/17 09:18:29;;;;;;;6.13;2.80;;;;;;;23.98;54.42;98731.56;4180740;28;20624;-70
2023/07/17 09:20:29;;;;;;;4.65;2.90;;;;;;;23.81;56.02;98731.00;4181313;28;20041;-70
2023/07/17 09:22:29;;;;;;;5.97;2.70;;;;;;;23.62;56.10;98732.13;4179292;28;20049;-70